createdAt,value
2019-05-13T00:00:05.223Z,994.66
2019-05-13T00:01:07.600Z,994.76
2019-05-13T00:02:05.256Z,994.58
2019-05-13T00:03:04.852Z,994.52
2019-05-13T00:04:10.062Z,994.63
2019-05-13T00:05:05.369Z,994.52
2019-05-13T00:06:04.677Z,994.52
2019-05-13T00:07:05.290Z,994.55
2019-05-13T00:08:05.174Z,994.55
2019-05-13T00:09:05.118Z,994.61
2019-05-13T00:10:04.652Z,994.61
2019-05-13T00:11:04.962Z,994.61
2019-05-13T00:12:05.272Z,994.71
2019-05-13T00:13:05.084Z,994.50
2019-05-13T00:14:04.952Z,994.64
2019-05-13T00:15:04.871Z,994.68
2019-05-13T00:16:06.068Z,994.55
2019-05-13T00:17:04.856Z,994.66
2019-05-13T00:18:04.693Z,994.64
2019-05-13T00:19:05.387Z,994.68
2019-05-13T00:20:05.284Z,994.66
2019-05-13T00:21:04.771Z,994.68
2019-05-13T00:22:06.357Z,994.64
2019-05-13T00:23:04.941Z,994.77
2019-05-13T00:24:05.354Z,994.68
2019-05-13T00:25:04.516Z,994.77
2019-05-13T00:26:05.185Z,994.66
2019-05-13T00:27:05.372Z,994.80
2019-05-13T00:28:04.779Z,994.80
2019-05-13T00:29:05.294Z,994.74
2019-05-13T00:30:04.727Z,994.71
2019-05-13T00:31:04.882Z,994.71
2019-05-13T00:32:05.254Z,994.74
2019-05-13T00:33:04.919Z,994.74
2019-05-13T00:34:05.281Z,994.80
2019-05-13T00:35:05.896Z,994.64
2019-05-13T00:36:04.905Z,994.68
2019-05-13T00:37:12.334Z,994.74
2019-05-13T00:38:04.847Z,994.74
2019-05-13T00:39:04.962Z,994.77
2019-05-13T00:40:05.131Z,994.85
2019-05-13T00:41:05.455Z,994.77
2019-05-13T00:42:04.620Z,994.85
2019-05-13T00:43:05.271Z,994.88
2019-05-13T00:44:09.759Z,994.64
2019-05-13T00:45:05.081Z,994.77
2019-05-13T00:46:05.188Z,994.71
2019-05-13T00:47:05.231Z,994.85
2019-05-13T00:48:05.348Z,994.88
2019-05-13T00:49:05.323Z,994.85
2019-05-13T00:50:04.857Z,994.77
2019-05-13T00:51:05.304Z,994.83
2019-05-13T00:52:04.518Z,994.88
2019-05-13T00:53:05.044Z,994.94
2019-05-13T00:54:05.109Z,994.86
2019-05-13T00:55:05.486Z,994.86
2019-05-13T00:56:05.195Z,995.05
2019-05-13T00:57:05.077Z,995.00
2019-05-13T00:58:04.941Z,994.77
2019-05-13T00:59:04.691Z,994.94
2019-05-13T01:00:04.972Z,995.00
2019-05-13T01:01:04.677Z,994.94
2019-05-13T01:02:04.820Z,994.89
2019-05-13T01:03:04.920Z,994.89
2019-05-13T01:04:09.899Z,994.80
2019-05-13T01:05:05.109Z,994.83
2019-05-13T01:06:04.745Z,994.83
2019-05-13T01:07:15.369Z,994.80
2019-05-13T01:08:05.170Z,994.91
2019-05-13T01:09:04.882Z,994.89
2019-05-13T01:10:04.916Z,994.86
2019-05-13T01:11:05.035Z,994.86
2019-05-13T01:12:04.972Z,994.83
2019-05-13T01:13:05.261Z,995.00
2019-05-13T01:14:05.091Z,994.80
2019-05-13T01:15:05.093Z,994.89
2019-05-13T01:16:04.945Z,994.92
2019-05-13T01:17:05.386Z,994.86
2019-05-13T01:18:04.893Z,994.80
2019-05-13T01:19:05.162Z,994.86
2019-05-13T01:20:05.413Z,994.83
2019-05-13T01:21:04.952Z,994.89
2019-05-13T01:22:04.888Z,994.95
2019-05-13T01:23:05.046Z,994.89
2019-05-13T01:24:05.170Z,994.95
2019-05-13T01:25:05.483Z,994.80
2019-05-13T01:26:04.745Z,994.97
2019-05-13T01:27:04.685Z,994.95
2019-05-13T01:28:05.254Z,994.80
2019-05-13T01:29:04.831Z,994.89
2019-05-13T01:30:05.197Z,994.95
2019-05-13T01:31:05.050Z,995.03
2019-05-13T01:32:05.213Z,994.89
2019-05-13T01:33:05.371Z,994.95
2019-05-13T01:34:05.235Z,994.92
2019-05-13T01:35:04.987Z,994.86
2019-05-13T01:36:05.656Z,995.06
2019-05-13T01:37:04.877Z,994.95
2019-05-13T01:38:05.971Z,994.95
2019-05-13T01:39:04.599Z,995.03
2019-05-13T01:40:05.993Z,994.89
2019-05-13T01:41:05.519Z,994.89
2019-05-13T01:42:04.725Z,994.89
2019-05-13T01:43:04.739Z,995.09
2019-05-13T01:44:04.699Z,994.95
2019-05-13T01:45:09.730Z,994.92
2019-05-13T01:46:05.188Z,994.95
2019-05-13T01:47:04.989Z,994.98
2019-05-13T01:48:08.232Z,994.95
2019-05-13T01:49:05.423Z,995.12
2019-05-13T01:50:05.063Z,994.95
2019-05-13T01:51:04.655Z,994.98
2019-05-13T01:52:05.079Z,995.00
2019-05-13T01:53:05.126Z,995.06
2019-05-13T01:54:05.086Z,995.01
2019-05-13T01:55:05.342Z,994.92
2019-05-13T01:56:04.644Z,995.17
2019-05-13T01:57:05.049Z,995.03
2019-05-13T01:58:05.225Z,995.06
2019-05-13T01:59:04.841Z,994.92
2019-05-13T02:00:05.128Z,995.09
2019-05-13T02:01:05.548Z,995.17
2019-05-13T02:02:05.314Z,995.09
2019-05-13T02:03:04.890Z,995.03
2019-05-13T02:04:04.966Z,995.09
2019-05-13T02:05:04.999Z,995.09
2019-05-13T02:06:04.529Z,994.98
2019-05-13T02:07:04.944Z,995.15
2019-05-13T02:08:05.242Z,995.09
2019-05-13T02:09:04.706Z,995.15
2019-05-13T02:10:04.884Z,995.06
2019-05-13T02:11:05.291Z,994.98
2019-05-13T02:12:05.339Z,995.06
2019-05-13T02:13:05.141Z,995.06
2019-05-13T02:14:06.053Z,995.12
2019-05-13T02:15:04.848Z,995.09
2019-05-13T02:16:04.891Z,994.95
2019-05-13T02:17:05.353Z,995.23
2019-05-13T02:18:04.920Z,995.23
2019-05-13T02:19:10.059Z,995.12
2019-05-13T02:20:05.415Z,995.23
2019-05-13T02:21:05.811Z,995.23
2019-05-13T02:22:04.763Z,995.15
2019-05-13T02:23:04.845Z,995.17
2019-05-13T02:24:04.849Z,995.12
2019-05-13T02:25:05.088Z,995.12
2019-05-13T02:26:05.045Z,995.15
2019-05-13T02:27:06.418Z,995.26
2019-05-13T02:28:10.470Z,995.20
2019-05-13T02:29:05.442Z,995.18
2019-05-13T02:30:06.143Z,995.40
2019-05-13T02:31:04.810Z,995.32
2019-05-13T02:32:04.872Z,995.26
2019-05-13T02:33:05.315Z,995.18
2019-05-13T02:34:05.092Z,995.32
2019-05-13T02:35:05.101Z,995.29
2019-05-13T02:36:04.807Z,995.29
2019-05-13T02:37:04.951Z,995.26
2019-05-13T02:38:28.474Z,995.26
2019-05-13T02:39:05.387Z,995.29
2019-05-13T02:40:05.056Z,995.23
2019-05-13T02:41:05.100Z,995.37
2019-05-13T02:42:04.975Z,995.29
2019-05-13T02:43:04.899Z,995.26
2019-05-13T02:44:12.714Z,995.26
2019-05-13T02:45:05.036Z,995.23
2019-05-13T02:46:05.053Z,995.32
2019-05-13T02:47:04.806Z,995.21
2019-05-13T02:48:05.398Z,995.26
2019-05-13T02:49:05.422Z,995.21
2019-05-13T02:50:05.651Z,995.26
2019-05-13T02:51:04.660Z,995.23
2019-05-13T02:52:04.583Z,995.29
2019-05-13T02:53:04.953Z,995.15
2019-05-13T02:54:05.012Z,995.29
2019-05-13T02:55:04.975Z,995.32
2019-05-13T02:56:05.332Z,995.32
2019-05-13T02:57:04.821Z,995.23
2019-05-13T02:58:04.991Z,995.23
2019-05-13T02:59:05.162Z,995.29
2019-05-13T03:00:05.191Z,995.32
2019-05-13T03:01:04.626Z,995.38
2019-05-13T03:02:04.891Z,995.40
2019-05-13T03:03:04.743Z,995.29
2019-05-13T03:04:13.580Z,995.35
2019-05-13T03:05:04.995Z,995.38
2019-05-13T03:06:06.128Z,995.32
2019-05-13T03:07:04.736Z,995.35
2019-05-13T03:08:05.395Z,995.26
2019-05-13T03:09:05.471Z,995.38
2019-05-13T03:10:05.444Z,995.43
2019-05-13T03:11:04.650Z,995.40
2019-05-13T03:12:05.063Z,995.43
2019-05-13T03:13:05.810Z,995.43
2019-05-13T03:14:04.935Z,995.38
2019-05-13T03:15:05.276Z,995.52
2019-05-13T03:16:05.387Z,995.41
2019-05-13T03:17:05.419Z,995.49
2019-05-13T03:18:05.202Z,995.41
2019-05-13T03:19:04.747Z,995.32
2019-05-13T03:20:04.964Z,995.35
2019-05-13T03:21:05.443Z,995.46
2019-05-13T03:22:04.584Z,995.38
2019-05-13T03:23:06.495Z,995.55
2019-05-13T03:24:04.625Z,995.46
2019-05-13T03:25:05.181Z,995.52
2019-05-13T03:26:04.723Z,995.49
2019-05-13T03:27:05.157Z,995.46
2019-05-13T03:28:06.805Z,995.46
2019-05-13T03:29:05.342Z,995.55
2019-05-13T03:30:05.528Z,995.46
2019-05-13T03:31:08.050Z,995.41
2019-05-13T03:32:08.003Z,995.38
2019-05-13T03:33:17.889Z,995.60
2019-05-13T03:34:07.860Z,995.49
2019-05-13T03:35:08.771Z,995.43
2019-05-13T03:36:08.389Z,995.49
2019-05-13T03:37:08.305Z,995.46
2019-05-13T03:38:05.175Z,995.62
2019-05-13T03:39:15.829Z,995.62
2019-05-13T03:40:05.746Z,995.60
2019-05-13T03:41:04.929Z,995.55
2019-05-13T03:42:04.593Z,995.62
2019-05-13T03:43:04.741Z,995.68
2019-05-13T03:44:15.021Z,995.55
2019-05-13T03:45:04.489Z,995.49
2019-05-13T03:46:04.816Z,995.52
2019-05-13T03:47:05.471Z,995.55
2019-05-13T03:48:05.064Z,995.52
2019-05-13T03:49:04.877Z,995.55
2019-05-13T03:50:04.547Z,995.76
2019-05-13T03:51:04.610Z,995.68
2019-05-13T03:52:06.070Z,995.74
2019-05-13T03:53:05.369Z,995.68
2019-05-13T03:54:05.513Z,995.71
2019-05-13T03:55:05.668Z,995.65
2019-05-13T03:56:04.805Z,995.65
2019-05-13T03:57:04.962Z,995.79
2019-05-13T03:58:05.245Z,995.74
2019-05-13T03:59:05.326Z,995.74
2019-05-13T04:00:04.902Z,995.62
2019-05-13T04:01:05.136Z,995.65
2019-05-13T04:02:05.432Z,995.74
2019-05-13T04:03:05.480Z,995.60
2019-05-13T04:04:05.256Z,995.74
2019-05-13T04:05:04.770Z,995.71
2019-05-13T04:06:05.028Z,995.74
2019-05-13T04:07:04.571Z,995.82
2019-05-13T04:08:04.935Z,995.85
2019-05-13T04:09:30.805Z,995.76
2019-05-13T04:10:05.058Z,995.71
2019-05-13T04:11:04.633Z,995.76
2019-05-13T04:12:05.095Z,995.82
2019-05-13T04:13:04.623Z,995.73
2019-05-13T04:14:05.017Z,995.79
2019-05-13T04:15:05.264Z,995.84
2019-05-13T04:16:04.921Z,995.92
2019-05-13T04:17:05.406Z,995.87
2019-05-13T04:18:04.851Z,995.89
2019-05-13T04:19:04.934Z,995.86
2019-05-13T04:20:05.127Z,995.86
2019-05-13T04:21:04.653Z,995.75
2019-05-13T04:22:05.548Z,995.95
2019-05-13T04:23:04.581Z,995.92
2019-05-13T04:24:04.804Z,996.03
2019-05-13T04:25:05.281Z,995.89
2019-05-13T04:26:04.777Z,995.83
2019-05-13T04:27:05.055Z,995.94
2019-05-13T04:28:04.583Z,995.99
2019-05-13T04:29:05.100Z,995.88
2019-05-13T04:30:05.526Z,995.91
2019-05-13T04:31:05.119Z,995.93
2019-05-13T04:32:05.382Z,995.99
2019-05-13T04:33:05.601Z,996.02
2019-05-13T04:34:04.686Z,995.96
2019-05-13T04:35:04.879Z,995.96
2019-05-13T04:36:05.343Z,996.10
2019-05-13T04:37:05.221Z,995.95
2019-05-13T04:38:12.968Z,995.95
2019-05-13T04:39:04.763Z,996.12
2019-05-13T04:40:05.015Z,995.92
2019-05-13T04:41:04.687Z,996.12
2019-05-13T04:42:04.939Z,996.09
2019-05-13T04:43:04.690Z,995.98
2019-05-13T04:44:13.380Z,996.03
2019-05-13T04:45:04.701Z,996.09
2019-05-13T04:46:04.790Z,996.03
2019-05-13T04:47:05.058Z,996.00
2019-05-13T04:48:05.437Z,996.11
2019-05-13T04:49:04.524Z,995.94
2019-05-13T04:50:04.805Z,996.11
2019-05-13T04:51:04.824Z,996.17
2019-05-13T04:52:04.749Z,996.08
2019-05-13T04:53:05.298Z,996.05
2019-05-13T04:54:04.772Z,996.19
2019-05-13T04:55:05.289Z,996.28
2019-05-13T04:56:04.873Z,996.13
2019-05-13T04:57:05.144Z,996.25
2019-05-13T04:58:04.546Z,996.07
2019-05-13T04:59:04.662Z,996.19
2019-05-13T05:00:05.134Z,996.22
2019-05-13T05:01:13.831Z,996.21
2019-05-13T05:02:05.575Z,996.27
2019-05-13T05:03:05.467Z,996.18
2019-05-13T05:04:28.373Z,996.30
2019-05-13T05:05:05.041Z,996.33
2019-05-13T05:06:04.774Z,996.27
2019-05-13T05:07:05.199Z,996.35
2019-05-13T05:08:05.315Z,996.21
2019-05-13T05:09:05.421Z,996.32
2019-05-13T05:10:34.558Z,996.35
2019-05-13T05:11:04.735Z,996.38
2019-05-13T05:12:04.602Z,996.38
2019-05-13T05:13:04.851Z,996.35
2019-05-13T05:14:04.673Z,996.38
2019-05-13T05:15:05.278Z,996.43
2019-05-13T05:16:05.009Z,996.38
2019-05-13T05:17:04.702Z,996.35
2019-05-13T05:18:04.784Z,996.51
2019-05-13T05:19:05.286Z,996.54
2019-05-13T05:20:06.210Z,996.53
2019-05-13T05:21:05.482Z,996.48
2019-05-13T05:22:04.925Z,996.50
2019-05-13T05:23:05.305Z,996.46
2019-05-13T05:24:04.915Z,996.56
2019-05-13T05:25:05.470Z,996.53
2019-05-13T05:26:04.857Z,996.50
2019-05-13T05:27:05.154Z,996.59
2019-05-13T05:28:05.228Z,996.62
2019-05-13T05:29:04.640Z,996.45
2019-05-13T05:30:04.756Z,996.50
2019-05-13T05:31:05.013Z,996.56
2019-05-13T05:32:05.087Z,996.61
2019-05-13T05:33:05.229Z,996.56
2019-05-13T05:34:07.175Z,996.56
2019-05-13T05:35:04.697Z,996.58
2019-05-13T05:36:05.020Z,996.55
2019-05-13T05:37:04.561Z,996.55
2019-05-13T05:38:04.722Z,996.55
2019-05-13T05:39:04.964Z,996.55
2019-05-13T05:40:05.273Z,996.64
2019-05-13T05:41:05.464Z,996.61
2019-05-13T05:42:04.924Z,996.64
2019-05-13T05:43:05.495Z,996.64
2019-05-13T05:44:04.666Z,996.64
2019-05-13T05:45:05.195Z,996.72
2019-05-13T05:46:04.740Z,996.58
2019-05-13T05:47:04.505Z,996.61
2019-05-13T05:48:05.077Z,996.52
2019-05-13T05:49:05.410Z,996.78
2019-05-13T05:50:04.533Z,996.61
2019-05-13T05:51:04.556Z,996.75
2019-05-13T05:52:04.734Z,996.69
2019-05-13T05:53:04.826Z,996.81
2019-05-13T05:54:04.985Z,996.61
2019-05-13T05:55:05.047Z,996.66
2019-05-13T05:56:04.703Z,996.69
2019-05-13T05:57:05.079Z,996.72
2019-05-13T05:58:04.958Z,996.75
2019-05-13T05:59:04.980Z,996.58
2019-05-13T06:00:05.179Z,996.72
2019-05-13T06:01:12.191Z,996.78
2019-05-13T06:02:04.560Z,996.75
2019-05-13T06:03:04.917Z,996.75
2019-05-13T06:04:05.041Z,996.78
2019-05-13T06:05:05.352Z,996.83
2019-05-13T06:06:05.014Z,996.77
2019-05-13T06:07:05.528Z,996.80
2019-05-13T06:08:05.866Z,996.77
2019-05-13T06:09:05.541Z,996.92
2019-05-13T06:10:04.692Z,996.95
2019-05-13T06:11:05.096Z,996.86
2019-05-13T06:12:05.398Z,996.92
2019-05-13T06:13:05.508Z,996.83
2019-05-13T06:14:05.002Z,996.92
2019-05-13T06:15:05.373Z,996.86
2019-05-13T06:16:04.818Z,996.80
2019-05-13T06:17:05.040Z,996.92
2019-05-13T06:18:05.266Z,996.86
2019-05-13T06:19:04.606Z,996.72
2019-05-13T06:20:05.331Z,996.89
2019-05-13T06:21:05.429Z,996.77
2019-05-13T06:22:04.705Z,996.77
2019-05-13T06:23:04.718Z,996.69
2019-05-13T06:24:05.394Z,996.72
2019-05-13T06:25:04.541Z,996.77
2019-05-13T06:26:04.617Z,996.77
2019-05-13T06:27:04.689Z,996.89
2019-05-13T06:28:05.504Z,996.83
2019-05-13T06:29:04.926Z,996.83
2019-05-13T06:30:05.038Z,996.98
2019-05-13T06:31:05.100Z,996.77
2019-05-13T06:32:23.188Z,996.95
2019-05-13T06:33:05.265Z,996.95
2019-05-13T06:34:05.500Z,996.92
2019-05-13T06:35:05.442Z,996.83
2019-05-13T06:36:05.082Z,997.00
2019-05-13T06:37:05.474Z,996.92
2019-05-13T06:38:05.139Z,996.95
2019-05-13T06:39:05.279Z,996.89
2019-05-13T06:40:05.302Z,996.86
2019-05-13T06:41:14.388Z,996.86
2019-05-13T06:42:04.545Z,996.83
2019-05-13T06:43:04.764Z,996.86
2019-05-13T06:44:12.545Z,996.69
2019-05-13T06:45:05.014Z,996.83
2019-05-13T06:46:05.088Z,996.92
2019-05-13T06:47:05.080Z,996.77
2019-05-13T06:48:05.020Z,996.92
2019-05-13T06:49:05.075Z,996.80
2019-05-13T06:50:05.246Z,996.86
2019-05-13T06:51:05.221Z,996.77
2019-05-13T06:52:04.602Z,996.80
2019-05-13T06:53:08.752Z,996.86
2019-05-13T06:54:05.405Z,996.89
2019-05-13T06:55:04.943Z,996.95
2019-05-13T06:56:04.705Z,996.89
2019-05-13T06:57:06.505Z,996.83
2019-05-13T06:58:05.243Z,996.75
2019-05-13T06:59:05.537Z,996.80
2019-05-13T07:00:05.001Z,996.78
2019-05-13T07:01:05.299Z,996.86
2019-05-13T07:02:04.793Z,996.69
2019-05-13T07:03:05.488Z,996.78
2019-05-13T07:04:04.533Z,996.80
2019-05-13T07:05:05.138Z,996.75
2019-05-13T07:06:04.819Z,996.89
2019-05-13T07:07:16.841Z,996.83
2019-05-13T07:08:05.014Z,996.89
2019-05-13T07:09:04.859Z,996.92
2019-05-13T07:10:04.536Z,996.84
2019-05-13T07:11:22.128Z,996.84
2019-05-13T07:12:04.735Z,996.81
2019-05-13T07:13:04.829Z,996.84
2019-05-13T07:14:05.445Z,996.92
2019-05-13T07:15:04.720Z,996.92
2019-05-13T07:16:04.681Z,996.81
2019-05-13T07:17:04.931Z,996.84
2019-05-13T07:18:04.974Z,996.81
2019-05-13T07:19:04.984Z,996.92
2019-05-13T07:20:05.555Z,996.75
2019-05-13T07:21:04.731Z,996.92
2019-05-13T07:22:04.700Z,996.75
2019-05-13T07:23:04.551Z,996.75
2019-05-13T07:24:04.926Z,996.83
2019-05-13T07:25:05.314Z,996.83
2019-05-13T07:26:05.388Z,996.80
2019-05-13T07:27:04.843Z,996.89
2019-05-13T07:28:05.530Z,996.69
2019-05-13T07:29:06.041Z,996.75
2019-05-13T07:30:04.477Z,996.78
2019-05-13T07:31:04.793Z,996.78
2019-05-13T07:32:05.399Z,996.75
2019-05-13T07:33:04.742Z,996.78
2019-05-13T07:34:04.951Z,996.84
2019-05-13T07:35:05.593Z,996.81
2019-05-13T07:36:04.906Z,996.81
2019-05-13T07:37:04.707Z,996.92
2019-05-13T07:38:04.763Z,996.66
2019-05-13T07:39:04.862Z,996.86
2019-05-13T07:40:05.202Z,996.69
2019-05-13T07:41:05.240Z,996.72
2019-05-13T07:42:06.358Z,996.60
2019-05-13T07:43:04.990Z,996.60
2019-05-13T07:44:12.258Z,996.72
2019-05-13T07:45:04.715Z,996.78
2019-05-13T07:46:04.744Z,996.63
2019-05-13T07:47:05.429Z,996.63
2019-05-13T07:48:21.377Z,996.66
2019-05-13T07:49:05.364Z,996.78
2019-05-13T07:50:04.909Z,996.69
2019-05-13T07:51:05.522Z,996.63
2019-05-13T07:52:04.628Z,996.66
2019-05-13T07:53:04.679Z,996.66
2019-05-13T07:54:05.038Z,996.75
2019-05-13T07:55:05.070Z,996.83
2019-05-13T07:56:05.417Z,996.78
2019-05-13T07:57:05.556Z,996.83
2019-05-13T07:58:04.675Z,996.75
2019-05-13T07:59:05.965Z,996.57
2019-05-13T08:00:04.479Z,996.63
2019-05-13T08:01:04.610Z,996.72
2019-05-13T08:02:05.253Z,996.69
2019-05-13T08:03:05.480Z,996.69
2019-05-13T08:04:04.540Z,996.77
2019-05-13T08:05:05.103Z,996.57
2019-05-13T08:06:05.229Z,996.63
2019-05-13T08:07:05.227Z,996.66
2019-05-13T08:08:04.819Z,996.69
2019-05-13T08:09:04.983Z,996.63
2019-05-13T08:10:05.117Z,996.63
2019-05-13T08:11:04.597Z,996.63
2019-05-13T08:12:13.499Z,996.51
2019-05-13T08:13:05.099Z,996.63
2019-05-13T08:14:05.431Z,996.63
2019-05-13T08:15:04.461Z,996.54
2019-05-13T08:16:04.696Z,996.51
2019-05-13T08:17:04.712Z,996.54
2019-05-13T08:18:04.605Z,996.57
2019-05-13T08:19:04.934Z,996.57
2019-05-13T08:20:05.332Z,996.60
2019-05-13T08:21:04.986Z,996.54
2019-05-13T08:22:05.012Z,996.57
2019-05-13T08:23:05.416Z,996.57
2019-05-13T08:24:04.529Z,996.63
2019-05-13T08:25:04.837Z,996.86
2019-05-13T08:26:05.305Z,996.54
2019-05-13T08:27:04.889Z,996.60
2019-05-13T08:28:04.815Z,996.51
2019-05-13T08:29:06.502Z,996.54
2019-05-13T08:30:05.258Z,996.54
2019-05-13T08:31:04.554Z,996.69
2019-05-13T08:32:04.656Z,996.66
2019-05-13T08:33:04.757Z,996.48
2019-05-13T08:34:05.239Z,996.63
2019-05-13T08:35:12.295Z,996.63
2019-05-13T08:36:05.058Z,996.60
2019-05-13T08:37:05.135Z,996.66
2019-05-13T08:38:04.589Z,996.54
2019-05-13T08:39:05.065Z,996.57
2019-05-13T08:40:05.401Z,996.72
2019-05-13T08:41:04.717Z,996.60
2019-05-13T08:42:19.530Z,996.41
2019-05-13T08:43:07.193Z,996.47
2019-05-13T08:44:12.642Z,996.57
2019-05-13T08:45:05.130Z,996.54
2019-05-13T08:46:05.060Z,996.49
2019-05-13T08:47:05.579Z,996.44
2019-05-13T08:48:05.034Z,996.60
2019-05-13T08:49:05.516Z,996.57
2019-05-13T08:50:05.070Z,996.54
2019-05-13T08:51:04.891Z,996.49
2019-05-13T08:52:05.143Z,996.63
2019-05-13T08:53:05.450Z,996.47
2019-05-13T08:54:04.851Z,996.52
2019-05-13T08:55:04.511Z,996.69
2019-05-13T08:56:05.148Z,996.44
2019-05-13T08:57:04.617Z,996.55
2019-05-13T08:58:05.340Z,996.55
2019-05-13T08:59:05.397Z,996.49
2019-05-13T09:00:06.178Z,996.55
2019-05-13T09:01:04.815Z,996.49
2019-05-13T09:02:07.222Z,996.47
2019-05-13T09:03:06.693Z,996.57
2019-05-13T09:04:12.303Z,996.49
2019-05-13T09:05:04.837Z,996.49
2019-05-13T09:06:04.876Z,996.49
2019-05-13T09:07:05.078Z,996.41
2019-05-13T09:08:04.968Z,996.66
2019-05-13T09:09:05.063Z,996.63
2019-05-13T09:10:05.288Z,996.52
2019-05-13T09:11:04.997Z,996.55
2019-05-13T09:12:05.037Z,996.49
2019-05-13T09:13:04.703Z,996.55
2019-05-13T09:14:05.004Z,996.57
2019-05-13T09:15:05.227Z,996.57
2019-05-13T09:16:04.855Z,996.60
2019-05-13T09:17:04.935Z,996.60
2019-05-13T09:18:04.615Z,996.55
2019-05-13T09:19:04.838Z,996.55
2019-05-13T09:20:05.234Z,996.49
2019-05-13T09:21:04.795Z,996.58
2019-05-13T09:22:05.357Z,996.55
2019-05-13T09:23:04.642Z,996.44
2019-05-13T09:24:25.943Z,996.60
2019-05-13T09:25:04.814Z,996.49
2019-05-13T09:26:04.815Z,996.47
2019-05-13T09:27:04.975Z,996.57
2019-05-13T09:28:04.983Z,996.55
2019-05-13T09:29:04.506Z,996.49
2019-05-13T09:30:05.111Z,996.44
2019-05-13T09:31:05.187Z,996.47
2019-05-13T09:32:05.448Z,996.41
2019-05-13T09:33:05.474Z,996.44
2019-05-13T09:34:04.586Z,996.44
2019-05-13T09:35:04.631Z,996.38
2019-05-13T09:36:04.805Z,996.41
2019-05-13T09:37:04.501Z,996.35
2019-05-13T09:38:04.632Z,996.38
2019-05-13T09:39:05.334Z,996.30
2019-05-13T09:40:05.341Z,996.35
2019-05-13T09:41:05.479Z,996.30
2019-05-13T09:42:04.434Z,996.44
2019-05-13T09:43:04.874Z,996.52
2019-05-13T09:44:05.040Z,996.44
2019-05-13T09:45:05.246Z,996.47
2019-05-13T09:46:04.827Z,996.47
2019-05-13T09:47:05.059Z,996.41
2019-05-13T09:48:05.525Z,996.38
2019-05-13T09:49:23.003Z,996.60
2019-05-13T09:50:05.069Z,996.52
2019-05-13T09:51:05.060Z,996.52
2019-05-13T09:52:05.422Z,996.47
2019-05-13T09:53:04.675Z,996.41
2019-05-13T09:54:04.775Z,996.35
2019-05-13T09:55:28.354Z,996.47
2019-05-13T09:56:04.545Z,996.38
2019-05-13T09:57:05.014Z,996.35
2019-05-13T09:58:05.194Z,996.35
2019-05-13T09:59:04.919Z,996.47
2019-05-13T10:00:12.647Z,996.38
2019-05-13T10:01:05.068Z,996.49
2019-05-13T10:02:05.385Z,996.33
2019-05-13T10:03:05.271Z,996.38
2019-05-13T10:04:05.627Z,996.33
2019-05-13T10:05:05.243Z,996.44
2019-05-13T10:06:05.421Z,996.35
2019-05-13T10:07:04.964Z,996.35
2019-05-13T10:08:05.390Z,996.33
2019-05-13T10:09:04.776Z,996.44
2019-05-13T10:10:04.684Z,996.36
2019-05-13T10:11:05.005Z,996.30
2019-05-13T10:12:05.472Z,996.33
2019-05-13T10:13:15.375Z,996.36
2019-05-13T10:14:05.250Z,996.36
2019-05-13T10:15:04.470Z,996.36
2019-05-13T10:16:04.575Z,996.36
2019-05-13T10:17:06.980Z,996.41
2019-05-13T10:18:04.597Z,996.36
2019-05-13T10:19:04.615Z,996.18
2019-05-13T10:20:04.787Z,996.27
2019-05-13T10:21:05.144Z,996.27
2019-05-13T10:22:05.614Z,996.33
2019-05-13T10:23:04.897Z,996.33
2019-05-13T10:24:04.932Z,996.30
2019-05-13T10:25:04.490Z,996.30
2019-05-13T10:26:04.699Z,996.30
2019-05-13T10:27:05.026Z,996.38
2019-05-13T10:28:05.122Z,996.33
2019-05-13T10:29:04.938Z,996.30
2019-05-13T10:30:05.470Z,996.30
2019-05-13T10:31:05.079Z,996.30
2019-05-13T10:32:05.426Z,996.33
2019-05-13T10:33:05.349Z,996.41
2019-05-13T10:34:04.488Z,996.39
2019-05-13T10:35:04.449Z,996.30
2019-05-13T10:36:04.766Z,996.41
2019-05-13T10:37:04.703Z,996.33
2019-05-13T10:38:05.045Z,996.47
2019-05-13T10:39:05.180Z,996.39
2019-05-13T10:40:04.955Z,996.41
2019-05-13T10:41:04.693Z,996.21
2019-05-13T10:42:04.891Z,996.33
2019-05-13T10:43:05.474Z,996.33
2019-05-13T10:44:05.292Z,996.27
2019-05-13T10:45:04.990Z,996.36
2019-05-13T10:46:05.505Z,996.36
2019-05-13T10:47:05.137Z,996.24
2019-05-13T10:48:12.873Z,996.36
2019-05-13T10:49:05.762Z,996.41
2019-05-13T10:50:05.141Z,996.44
2019-05-13T10:51:05.266Z,996.44
2019-05-13T10:52:04.714Z,996.39
2019-05-13T10:53:04.717Z,996.55
2019-05-13T10:54:05.236Z,996.41
2019-05-13T10:55:04.678Z,996.33
2019-05-13T10:56:05.380Z,996.36
2019-05-13T10:57:05.171Z,996.49
2019-05-13T10:58:05.343Z,996.33
2019-05-13T10:59:05.347Z,996.33
2019-05-13T11:00:04.706Z,996.33
2019-05-13T11:01:05.276Z,996.27
2019-05-13T11:02:05.326Z,996.44
2019-05-13T11:03:04.750Z,996.18
2019-05-13T11:04:14.009Z,996.33
2019-05-13T11:05:05.474Z,996.27
2019-05-13T11:06:04.810Z,996.35
2019-05-13T11:07:05.249Z,996.41
2019-05-13T11:08:04.638Z,996.18
2019-05-13T11:09:04.771Z,996.30
2019-05-13T11:10:04.924Z,996.27
2019-05-13T11:11:05.257Z,996.39
2019-05-13T11:12:04.542Z,996.24
2019-05-13T11:13:10.612Z,996.13
2019-05-13T11:14:15.394Z,996.21
2019-05-13T11:15:05.306Z,996.18
2019-05-13T11:16:05.433Z,996.21
2019-05-13T11:17:05.026Z,996.10
2019-05-13T11:18:05.483Z,996.12
2019-05-13T11:19:04.729Z,996.12
2019-05-13T11:20:06.260Z,996.04
2019-05-13T11:21:05.167Z,996.15
2019-05-13T11:22:05.052Z,996.09
2019-05-13T11:23:04.739Z,996.27
2019-05-13T11:24:04.847Z,996.27
2019-05-13T11:25:04.993Z,996.21
2019-05-13T11:26:05.104Z,996.04
2019-05-13T11:27:05.242Z,996.10
2019-05-13T11:28:04.989Z,996.27
2019-05-13T11:29:05.231Z,996.19
2019-05-13T11:30:07.832Z,996.19
2019-05-13T11:31:04.849Z,996.21
2019-05-13T11:32:05.256Z,996.21
2019-05-13T11:33:10.443Z,996.04
2019-05-13T11:34:05.201Z,996.19
2019-05-13T11:35:04.761Z,996.27
2019-05-13T11:36:04.964Z,996.21
2019-05-13T11:37:04.755Z,996.19
2019-05-13T11:38:04.841Z,996.07
2019-05-13T11:39:04.758Z,996.04
2019-05-13T11:40:05.326Z,996.24
2019-05-13T11:41:05.382Z,995.98
2019-05-13T11:42:04.584Z,996.07
2019-05-13T11:43:04.982Z,995.98
2019-05-13T11:44:16.811Z,996.07
2019-05-13T11:45:04.697Z,995.93
2019-05-13T11:46:05.120Z,995.93
2019-05-13T11:47:05.322Z,995.98
2019-05-13T11:48:05.015Z,995.84
2019-05-13T11:49:04.602Z,996.07
2019-05-13T11:50:04.994Z,995.95
2019-05-13T11:51:04.903Z,995.95
2019-05-13T11:52:04.901Z,995.98
2019-05-13T11:53:33.379Z,995.90
2019-05-13T11:54:05.272Z,995.98
2019-05-13T11:55:05.000Z,995.90
2019-05-13T11:56:05.019Z,996.01
2019-05-13T11:57:06.979Z,995.93
2019-05-13T11:58:04.641Z,995.93
2019-05-13T11:59:04.977Z,995.93
2019-05-13T12:00:05.209Z,996.01
2019-05-13T12:01:04.668Z,995.87
2019-05-13T12:02:05.521Z,995.96
2019-05-13T12:03:05.002Z,995.93
2019-05-13T12:04:10.417Z,995.87
2019-05-13T12:05:04.826Z,995.82
2019-05-13T12:06:05.135Z,995.87
2019-05-13T12:07:04.786Z,995.82
2019-05-13T12:08:04.935Z,995.57
2019-05-13T12:09:04.960Z,995.99
2019-05-13T12:10:04.633Z,995.85
2019-05-13T12:11:06.703Z,995.76
2019-05-13T12:12:04.882Z,995.93
2019-05-13T12:13:05.142Z,995.93
2019-05-13T12:14:05.258Z,995.93
2019-05-13T12:15:42.393Z,995.73
2019-05-13T12:16:05.357Z,995.85
2019-05-13T12:17:05.147Z,995.70
2019-05-13T12:18:05.387Z,995.79
2019-05-13T12:19:05.047Z,995.79
2019-05-13T12:20:05.189Z,995.79
2019-05-13T12:21:04.790Z,995.82
2019-05-13T12:22:05.242Z,995.79
2019-05-13T12:23:04.830Z,995.84
2019-05-13T12:24:11.449Z,995.70
2019-05-13T12:25:05.200Z,995.76
2019-05-13T12:26:05.756Z,995.61
2019-05-13T12:27:05.427Z,995.76
2019-05-13T12:28:04.547Z,995.76